createdAt,value
2018-12-20T00:03:27.109Z,81.83
2018-12-20T00:08:33.252Z,81.83
2018-12-20T00:13:38.041Z,81.67
2018-12-20T00:18:43.037Z,81.76
2018-12-20T00:23:48.097Z,82.00
2018-12-20T00:28:52.918Z,81.41
2018-12-20T00:33:57.999Z,81.85
2018-12-20T00:39:03.123Z,81.97
2018-12-20T00:44:07.989Z,81.39
2018-12-20T00:49:13.052Z,81.34
2018-12-20T00:59:55.966Z,81.16
2018-12-20T01:05:12.374Z,80.94
2018-12-20T01:10:17.379Z,80.99
2018-12-20T01:15:22.213Z,80.75
2018-12-20T01:20:27.196Z,81.07
2018-12-20T01:25:33.025Z,81.07
2018-12-20T01:30:38.169Z,81.05
2018-12-20T01:35:43.047Z,80.95
2018-12-20T01:40:47.921Z,81.23
2018-12-20T01:45:52.849Z,80.24
2018-12-20T01:50:57.625Z,80.31
2018-12-20T01:56:02.451Z,80.64
2018-12-20T02:01:07.606Z,79.92
2018-12-20T02:06:12.769Z,80.15
2018-12-20T02:16:49.909Z,80.60
2018-12-20T02:21:54.874Z,81.04
2018-12-20T02:26:59.851Z,81.35
2018-12-20T02:32:04.688Z,80.83
2018-12-20T02:37:09.634Z,81.17
2018-12-20T02:42:14.716Z,81.03
2018-12-20T02:47:21.754Z,81.13
2018-12-20T02:52:26.683Z,80.24
2018-12-20T02:57:31.813Z,81.15
2018-12-20T03:02:36.816Z,81.79
2018-12-20T03:13:19.493Z,82.89
2018-12-20T03:18:28.223Z,83.49
2018-12-20T03:23:33.940Z,84.07
2018-12-20T03:28:39.328Z,84.15
2018-12-20T03:33:44.621Z,83.81
2018-12-20T03:38:49.511Z,83.67
2018-12-20T03:43:54.613Z,83.43
2018-12-20T03:48:59.618Z,82.72
2018-12-20T03:54:04.686Z,82.96
2018-12-20T03:59:09.798Z,82.50
2018-12-20T04:04:14.678Z,82.07
2018-12-20T04:09:19.946Z,82.49
2018-12-20T04:14:25.029Z,82.55
2018-12-20T04:19:30.305Z,83.06
2018-12-20T04:24:35.104Z,83.36
2018-12-20T04:29:40.275Z,83.24
2018-12-20T04:34:45.268Z,83.08
2018-12-20T04:39:50.551Z,82.70
2018-12-20T04:44:55.277Z,82.63
2018-12-20T04:50:00.128Z,82.60
2018-12-20T04:55:05.307Z,82.80
2018-12-20T05:00:12.318Z,83.07
2018-12-20T05:05:17.410Z,83.19
2018-12-20T05:10:22.608Z,83.13
2018-12-20T05:15:27.622Z,83.52
2018-12-20T05:20:32.747Z,82.78
2018-12-20T05:25:37.723Z,83.01
2018-12-20T05:30:42.568Z,82.58
2018-12-20T05:35:47.679Z,81.94
2018-12-20T05:40:52.444Z,82.37
2018-12-20T05:46:04.475Z,83.20
2018-12-20T05:51:04.192Z,83.60
2018-12-20T05:56:08.982Z,83.80
2018-12-20T06:01:13.858Z,83.51
2018-12-20T06:06:18.975Z,83.71
2018-12-20T06:11:35.929Z,83.26
2018-12-20T06:16:40.827Z,83.03
2018-12-20T06:21:45.793Z,82.15
2018-12-20T06:26:50.482Z,81.68
2018-12-20T06:31:55.347Z,81.55
2018-12-20T06:37:00.012Z,82.02
2018-12-20T06:42:04.908Z,81.92
2018-12-20T06:47:09.798Z,81.79
2018-12-20T06:52:14.679Z,81.44
2018-12-20T06:57:19.443Z,81.60
2018-12-20T07:02:24.338Z,81.82
2018-12-20T07:13:01.594Z,81.57
2018-12-20T07:18:06.586Z,81.42
2018-12-20T07:23:11.609Z,82.04
2018-12-20T07:28:16.620Z,82.57
2018-12-20T07:33:21.415Z,82.32
2018-12-20T07:38:26.332Z,82.20
2018-12-20T07:43:31.039Z,83.42
2018-12-20T07:48:35.746Z,83.35
2018-12-20T07:53:40.564Z,83.58
2018-12-20T07:58:45.414Z,83.75
2018-12-20T08:03:50.503Z,83.70
2018-12-20T08:08:55.117Z,84.05
2018-12-20T08:13:59.962Z,83.61
2018-12-20T08:19:04.928Z,83.57
2018-12-20T08:24:09.861Z,83.52
2018-12-20T08:29:14.767Z,83.37
2018-12-20T08:34:19.642Z,83.07
2018-12-20T08:39:24.492Z,83.19
2018-12-20T08:44:29.408Z,83.79
2018-12-20T08:49:34.593Z,82.86
2018-12-20T08:54:39.435Z,82.79
2018-12-20T08:59:44.308Z,82.51
2018-12-20T09:04:49.134Z,81.34
2018-12-20T09:09:53.902Z,81.61
2018-12-20T09:14:58.538Z,80.68
2018-12-20T09:20:03.508Z,80.93
2018-12-20T09:25:08.461Z,80.11
2018-12-20T09:30:13.262Z,78.31
2018-12-20T09:35:18.195Z,76.30
2018-12-20T09:40:23.154Z,76.83
2018-12-20T09:45:27.908Z,77.13
2018-12-20T09:50:32.763Z,77.85
2018-12-20T09:55:37.583Z,79.03
2018-12-20T10:00:42.322Z,78.66
2018-12-20T10:05:47.043Z,78.12
2018-12-20T10:10:51.799Z,78.14
2018-12-20T10:15:56.641Z,77.42
2018-12-20T10:21:01.459Z,73.09
2018-12-20T10:26:06.293Z,69.60
2018-12-20T10:31:11.173Z,68.75
2018-12-20T10:36:16.088Z,67.52
2018-12-20T10:41:21.016Z,65.17
2018-12-20T10:46:25.808Z,65.26
2018-12-20T10:51:31.433Z,65.83
2018-12-20T10:56:36.212Z,67.91
2018-12-20T11:01:45.034Z,65.89
2018-12-20T11:06:53.858Z,66.90
2018-12-20T11:12:02.741Z,64.80
2018-12-20T11:17:07.617Z,65.72
2018-12-20T11:22:12.418Z,70.37
2018-12-20T11:27:17.319Z,68.10
2018-12-20T11:32:22.083Z,68.92
2018-12-20T11:37:26.727Z,71.67
2018-12-20T11:42:31.579Z,74.01
2018-12-20T11:47:36.362Z,75.13
2018-12-20T11:52:42.488Z,73.25
2018-12-20T11:57:47.630Z,72.81
2018-12-20T12:02:52.539Z,72.44
2018-12-20T12:07:57.309Z,71.27
2018-12-20T12:13:02.052Z,72.26
2018-12-20T12:18:06.995Z,71.20
2018-12-20T12:23:11.768Z,65.62
2018-12-20T12:28:16.592Z,62.84
2018-12-20T12:33:21.369Z,62.06
2018-12-20T12:38:26.202Z,60.96
2018-12-20T12:43:31.068Z,58.76
2018-12-20T12:48:36.110Z,57.95
2018-12-20T12:53:41.049Z,59.92
2018-12-20T12:58:46.007Z,62.23
2018-12-20T13:03:50.787Z,62.75
2018-12-20T13:08:55.628Z,65.21
2018-12-20T13:14:00.428Z,66.97
2018-12-20T13:19:05.247Z,68.08
2018-12-20T13:24:10.249Z,69.02
2018-12-20T13:29:15.010Z,69.05
2018-12-20T13:34:20.008Z,70.58
2018-12-20T13:39:24.928Z,67.39
2018-12-20T13:44:29.908Z,67.85
2018-12-20T13:49:34.788Z,67.02
2018-12-20T13:54:39.639Z,67.58
2018-12-20T13:59:44.539Z,68.83
2018-12-20T14:04:49.389Z,69.65
2018-12-20T14:09:54.348Z,68.25
2018-12-20T14:14:59.267Z,66.51
2018-12-20T14:20:04.687Z,68.45
2018-12-20T14:25:09.788Z,68.99
2018-12-20T14:30:14.829Z,70.31
2018-12-20T14:35:19.647Z,70.84
2018-12-20T14:40:24.607Z,72.15
2018-12-20T14:45:29.468Z,71.66
2018-12-20T14:50:34.868Z,72.76
2018-12-20T14:55:40.767Z,73.63
2018-12-20T15:06:24.027Z,77.98
2018-12-20T15:11:29.029Z,79.12
2018-12-20T15:16:33.808Z,79.64
2018-12-20T15:21:38.906Z,79.71
2018-12-20T15:26:43.767Z,79.98
2018-12-20T15:31:53.392Z,80.51
2018-12-20T15:36:55.666Z,80.68
2018-12-20T15:42:00.707Z,81.46
2018-12-20T15:47:05.610Z,82.17
2018-12-20T15:52:10.547Z,82.63
2018-12-20T15:57:15.407Z,83.39
2018-12-20T16:02:20.206Z,83.88
2018-12-20T16:07:25.107Z,84.24
2018-12-20T16:12:29.909Z,84.44
2018-12-20T16:17:35.151Z,84.88
2018-12-20T16:22:39.927Z,85.33
2018-12-20T16:27:44.767Z,85.23
2018-12-20T16:32:49.707Z,85.21
2018-12-20T16:37:54.787Z,85.96
2018-12-20T16:42:59.571Z,85.48
2018-12-20T16:48:04.507Z,85.72
2018-12-20T16:53:09.367Z,85.52
2018-12-20T16:58:14.446Z,85.89
2018-12-20T17:03:19.326Z,86.24
2018-12-20T17:08:24.266Z,85.91
2018-12-20T17:13:29.291Z,85.95
2018-12-20T17:18:35.129Z,86.10
2018-12-20T17:23:40.151Z,86.04
2018-12-20T17:28:45.066Z,86.07
2018-12-20T17:33:50.046Z,85.83
2018-12-20T17:38:54.939Z,86.04
2018-12-20T17:43:59.706Z,86.59
2018-12-20T17:49:04.689Z,86.35
2018-12-20T17:54:09.746Z,85.72
2018-12-20T17:59:14.706Z,86.12
2018-12-20T18:04:19.707Z,86.30
2018-12-20T18:09:24.668Z,86.26
2018-12-20T18:14:29.607Z,86.96
2018-12-20T18:19:38.984Z,86.42
2018-12-20T18:24:42.355Z,86.84
2018-12-20T18:29:47.439Z,86.71
2018-12-20T18:34:52.367Z,86.83
2018-12-20T18:39:57.987Z,86.72
2018-12-20T18:45:03.127Z,87.24
2018-12-20T18:50:09.987Z,87.21
2018-12-20T18:55:14.993Z,87.17
2018-12-20T19:00:19.928Z,87.13
2018-12-20T19:05:24.766Z,87.14
2018-12-20T19:10:31.807Z,87.07
2018-12-20T19:15:36.667Z,87.29
2018-12-20T19:20:41.648Z,87.63
2018-12-20T19:25:46.386Z,87.80
2018-12-20T19:30:51.288Z,87.97
2018-12-20T19:35:56.179Z,87.57
2018-12-20T19:41:01.198Z,87.59
2018-12-20T19:46:06.155Z,87.77
2018-12-20T19:51:10.899Z,87.69
2018-12-20T19:56:15.839Z,88.01
2018-12-20T20:01:20.783Z,87.75
2018-12-20T20:06:25.693Z,88.26
2018-12-20T20:11:30.648Z,88.10
2018-12-20T20:21:57.689Z,88.32
2018-12-20T20:27:02.548Z,88.30
2018-12-20T20:32:07.529Z,88.52
2018-12-20T20:37:12.373Z,88.71
2018-12-20T20:42:17.168Z,88.32
2018-12-20T20:47:21.965Z,88.47
2018-12-20T20:52:26.698Z,88.66
2018-12-20T20:57:31.568Z,88.39
2018-12-20T21:02:36.508Z,88.40
2018-12-20T21:07:41.778Z,88.77
2018-12-20T21:12:46.703Z,88.64
2018-12-20T21:17:51.479Z,88.47
2018-12-20T21:22:56.399Z,88.74
2018-12-20T21:28:01.223Z,88.79
2018-12-20T21:33:06.319Z,88.59
2018-12-20T21:38:11.225Z,88.60
2018-12-20T21:43:16.118Z,88.49
2018-12-20T21:48:21.073Z,88.88
2018-12-20T21:53:25.781Z,88.68
2018-12-20T21:58:30.714Z,88.65
2018-12-20T22:03:35.943Z,88.56
2018-12-20T22:08:40.809Z,88.87
2018-12-20T22:13:45.551Z,88.74
2018-12-20T22:18:50.349Z,88.68
2018-12-20T22:23:55.161Z,88.79
2018-12-20T22:28:59.938Z,88.56
2018-12-20T22:34:04.864Z,88.61
2018-12-20T22:39:09.569Z,88.72
2018-12-20T22:44:14.484Z,89.20
2018-12-20T22:49:19.493Z,88.98
2018-12-20T22:54:24.324Z,88.37
2018-12-20T22:59:29.043Z,88.65
2018-12-20T23:04:33.933Z,88.52
2018-12-20T23:09:38.739Z,88.75
2018-12-20T23:14:43.645Z,88.96
2018-12-20T23:19:49.138Z,88.82
2018-12-20T23:24:54.095Z,88.81
2018-12-20T23:29:58.861Z,88.49
2018-12-20T23:35:03.876Z,88.48
2018-12-20T23:40:08.618Z,88.75
2018-12-20T23:45:13.473Z,88.62
2018-12-20T23:50:18.423Z,88.36
2018-12-20T23:55:23.366Z,88.44
